Time;durP1;ratioP1;P1;durP2;ratioP2;P2;SDS_P1;SDS_P2;PMS_P1;PMS_P2;Temp;Humidity;BMP_temperature;BMP_pressure;BME280_temperature;BME280_humidity;BME280_pressure;Samples;Min_cycle;Max_cycle;Signal;HPM_P1;HPM_P2
2021/10/09 00:01:27;242595.00;0.81;419.21;0.00;0.00;0.62;;;;;15.00;1.00;;;;;;2268735;61;1416;-82
2021/10/09 00:03:54;87609.00;0.29;152.18;0.00;0.00;0.62;;;;;15.20;1.00;;;;;;2268304;61;991;-82
2021/10/09 00:06:21;335079.00;1.12;578.22;33514.00;0.11;58.67;;;;;14.90;1.00;;;;;;2268405;61;1032;-83
2021/10/09 00:08:48;198679.00;0.66;343.65;0.00;0.00;0.62;;;;;14.70;1.00;;;;;;2261662;61;935;-83
2021/10/09 00:11:18;752907.00;2.51;1299.11;164548.00;0.55;284.87;;;;;14.80;1.00;;;;;;2268268;61;1452;-82
2021/10/09 00:13:45;262629.00;0.88;453.67;0.00;0.00;0.62;;;;;15.00;1.10;;;;;;2267314;61;1990;-82
2021/10/09 00:16:12;201355.00;0.67;348.26;0.00;0.00;0.62;;;;;14.90;1.00;;;;;;2268367;61;1054;-83
2021/10/09 00:18:41;230349.00;0.77;398.15;0.00;0.00;0.62;;;;;14.90;1.00;;;;;;2268177;61;1074;-82
2021/10/09 00:21:08;151652.00;0.51;262.65;0.00;0.00;0.62;;;;;14.80;1.00;;;;;;2269437;61;1386;-83
2021/10/09 00:23:35;143980.00;0.48;249.43;0.00;0.00;0.62;;;;;14.70;1.00;;;;;;2269672;61;1045;-83
2021/10/09 00:26:01;90279.00;0.30;156.79;0.00;0.00;0.62;;;;;14.60;1.00;;;;;;2269745;61;982;-83
2021/10/09 00:30:56;269889.00;0.90;466.15;0.00;0.00;0.62;;;;;14.50;1.20;;;;;;2279366;61;1342;-85
2021/10/09 00:33:23;60146.00;0.20;104.73;0.00;0.00;0.62;;;;;14.60;1.00;;;;;;2277444;61;1992;-87
2021/10/09 00:35:51;157634.00;0.53;272.96;0.00;0.00;0.62;;;;;14.40;1.00;;;;;;2277484;61;390;-88
2021/10/09 00:38:18;234051.00;0.78;404.52;22416.00;0.07;39.45;;;;;14.40;1.00;;;;;;2276997;61;954;-83
2021/10/09 00:40:45;400154.00;1.33;690.07;21106.00;0.07;37.19;;;;;14.00;1.00;;;;;;2269878;61;1455;-83
2021/10/09 00:43:12;205273.00;0.68;355.00;0.00;0.00;0.62;;;;;13.90;1.00;;;;;;2276256;61;1020;-83
2021/10/09 00:45:39;375803.00;1.25;648.21;0.00;0.00;0.62;;;;;13.60;1.00;;;;;;2276900;61;1016;-82
2021/10/09 00:48:06;247210.00;0.82;427.15;0.00;0.00;0.62;;;;;13.50;1.00;;;;;;2276872;61;980;-83
2021/10/09 00:50:33;230781.00;0.77;398.89;0.00;0.00;0.62;;;;;13.30;1.00;;;;;;2272158;61;1380;-83
2021/10/09 00:53:02;454679.00;1.52;783.83;0.00;0.00;0.62;;;;;13.10;1.00;;;;;;2265638;61;1932;-82
2021/10/09 00:55:31;375236.00;1.25;647.24;33950.00;0.11;59.42;;;;;12.90;1.00;;;;;;2271996;61;964;-81
2021/10/09 00:57:59;286958.00;0.96;495.50;0.00;0.00;0.62;;;;;12.90;1.00;;;;;;2272350;61;993;-83
2021/10/09 01:02:54;234587.00;0.78;405.44;0.00;0.00;0.62;;;;;12.80;1.00;;;;;;2274685;61;1319;-83
2021/10/09 01:05:23;248314.00;0.83;429.05;0.00;0.00;0.62;;;;;13.00;1.00;;;;;;2265757;61;1044;-83
2021/10/09 01:07:50;304537.00;1.02;525.72;0.00;0.00;0.62;;;;;12.70;1.00;;;;;;2272851;61;1055;-83
2021/10/09 01:12:46;196119.00;0.65;339.24;0.00;0.00;0.62;;;;;11.80;1.00;;;;;;2274179;61;1899;-83
2021/10/09 01:15:19;169882.00;0.57;294.06;0.00;0.00;0.62;;;;;11.50;2.40;;;;;;2272795;61;978;-82
2021/10/09 01:17:46;285470.00;0.95;492.94;0.00;0.00;0.62;;;;;11.40;3.00;;;;;;2268210;61;984;-82
2021/10/09 01:25:15;437138.00;1.46;753.66;0.00;0.00;0.62;;;;;10.90;4.10;;;;;;2274783;60;1324;-83
2021/10/09 01:27:42;307830.00;1.03;531.38;0.00;0.00;0.62;;;;;10.70;5.50;;;;;;2272833;60;1087;-81
2021/10/09 01:30:10;296069.00;0.99;511.16;0.00;0.00;0.62;;;;;10.60;5.70;;;;;;2272927;60;1255;-82
2021/10/09 01:32:38;332639.00;1.11;574.02;0.00;0.00;0.62;;;;;10.40;6.20;;;;;;2273013;60;1919;-83
2021/10/09 01:35:08;228721.00;0.76;395.35;0.00;0.00;0.62;;;;;10.30;6.90;;;;;;2273084;60;985;-84
2021/10/09 01:37:39;329683.00;1.10;568.94;0.00;0.00;0.62;;;;;10.50;8.20;;;;;;2268145;61;925;-83
2021/10/09 01:40:07;546484.00;1.82;941.90;98771.00;0.33;171.45;;;;;11.00;6.90;;;;;;2268266;61;1308;-84
2021/10/09 01:42:38;140818.00;0.47;243.98;0.00;0.00;0.62;;;;;11.40;5.70;;;;;;2264962;61;988;-83
2021/10/09 01:45:06;333691.00;1.11;575.83;0.00;0.00;0.62;;;;;11.40;3.60;;;;;;2264392;61;962;-82
2021/10/09 01:47:33;182666.00;0.61;316.08;0.00;0.00;0.62;;;;;11.40;4.40;;;;;;2256347;61;984;-83
2021/10/09 01:50:00;111127.00;0.37;192.77;0.00;0.00;0.62;;;;;11.50;2.90;;;;;;2256372;61;1780;-83
2021/10/09 01:52:26;149434.00;0.50;258.83;0.00;0.00;0.62;;;;;11.80;3.40;;;;;;2248439;61;946;-82
2021/10/09 01:54:53;300424.00;1.00;518.65;79623.00;0.27;138.39;;;;;12.10;2.90;;;;;;2248376;61;1938;-84
2021/10/09 01:57:20;123208.00;0.41;213.62;0.00;0.00;0.62;;;;;12.50;2.70;;;;;;2248424;61;1020;-84
2021/10/09 01:59:49;272324.00;0.91;470.34;0.00;0.00;0.62;;;;;12.60;1.00;;;;;;2248352;61;1349;-82
2021/10/09 02:02:16;215789.00;0.72;373.10;0.00;0.00;0.62;;;;;12.60;1.00;;;;;;2245204;61;1020;-83
2021/10/09 02:07:16;337387.00;1.12;582.18;0.00;0.00;0.62;;;;;12.30;1.00;;;;;;2274411;60;1492;-83
2021/10/09 02:14:55;147612.00;0.49;255.69;0.00;0.00;0.62;;;;;11.80;1.20;;;;;;2270199;61;1945;-84
2021/10/09 02:25:47;159072.00;0.53;275.44;0.00;0.00;0.62;;;;;12.50;1.40;;;;;;2259954;61;1119;-85
2021/10/09 02:28:15;191458.00;0.64;331.22;0.00;0.00;0.62;;;;;12.40;1.00;;;;;;2260048;61;907;-84
2021/10/09 02:30:43;238131.00;0.79;411.54;0.00;0.00;0.62;;;;;12.10;3.40;;;;;;2253333;61;1495;-84
2021/10/09 02:33:11;320221.00;1.07;552.68;0.00;0.00;0.62;;;;;11.80;1.00;;;;;;2259967;61;2002;-82
2021/10/09 02:35:38;240594.00;0.80;415.77;0.00;0.00;0.62;;;;;11.50;1.90;;;;;;2260007;61;989;-83
2021/10/09 02:38:07;129086.00;0.43;223.75;0.00;0.00;0.62;;;;;11.60;5.50;;;;;;2259772;61;1193;-81
2021/10/09 02:40:34;272459.00;0.91;470.57;0.00;0.00;0.62;;;;;12.00;6.90;;;;;;2250013;61;1413;-84
2021/10/09 02:43:02;358670.00;1.20;618.76;0.00;0.00;0.62;;;;;12.60;5.90;;;;;;2251902;61;1006;-84
2021/10/09 02:45:29;228974.00;0.76;395.78;0.00;0.00;0.62;;;;;12.70;1.00;;;;;;2245370;61;975;-83
2021/10/09 02:47:58;209874.00;0.70;362.92;0.00;0.00;0.62;;;;;13.00;1.10;;;;;;2252029;61;1024;-84
2021/10/09 02:50:26;283606.00;0.95;489.74;34362.00;0.11;60.13;;;;;13.10;1.00;;;;;;2243962;61;1291;-84
2021/10/09 02:52:53;165337.00;0.55;286.23;0.00;0.00;0.62;;;;;13.10;1.00;;;;;;2240645;61;1924;-84
2021/10/09 02:55:20;175593.00;0.59;303.90;0.00;0.00;0.62;;;;;13.10;2.60;;;;;;2243112;61;1058;-83
2021/10/09 03:00:16;413566.00;1.38;713.13;78054.00;0.26;135.68;;;;;12.80;1.90;;;;;;2278200;61;1378;-81
2021/10/09 03:02:44;660372.00;2.20;1138.58;111936.00;0.37;194.17;;;;;12.60;1.00;;;;;;2269505;61;981;-83
2021/10/09 03:05:13;405387.00;1.35;699.07;26582.00;0.09;46.67;;;;;12.70;1.00;;;;;;2276615;61;1009;-81
2021/10/09 03:07:40;376245.00;1.25;648.97;31474.00;0.10;55.13;;;;;12.40;1.70;;;;;;2277317;61;1228;-82
2021/10/09 03:12:36;247018.00;0.82;426.82;0.00;0.00;0.62;;;;;12.40;1.00;;;;;;2274776;61;1390;-84
2021/10/09 03:15:04;250943.00;0.84;433.57;0.00;0.00;0.62;;;;;12.30;2.20;;;;;;2273153;61;1985;-84
2021/10/09 03:17:31;153144.00;0.51;265.23;0.00;0.00;0.62;;;;;12.80;4.70;;;;;;2273164;61;943;-84
2021/10/09 03:19:58;310883.00;1.04;536.63;52683.00;0.18;91.83;;;;;13.20;2.80;;;;;;2273462;61;1321;-84
2021/10/09 03:22:26;639629.00;2.13;1102.70;102925.00;0.34;178.62;;;;;13.00;1.00;;;;;;2266688;61;1126;-82
2021/10/09 03:27:21;230380.00;0.77;398.20;0.00;0.00;0.62;;;;;13.80;1.70;;;;;;2278997;61;1366;-82
2021/10/09 03:29:48;251664.00;0.84;434.81;30805.00;0.10;53.98;;;;;13.90;1.70;;;;;;2511064;39;3671;31
2021/10/09 03:34:43;81256.00;0.27;141.21;0.00;0.00;0.62;;;;;14.20;1.00;;;;;;2270794;61;1949;-82
2021/10/09 03:37:10;117139.00;0.39;203.15;0.00;0.00;0.62;;;;;14.10;1.00;;;;;;2269006;61;919;-83
2021/10/09 03:39:41;172518.00;0.58;298.60;0.00;0.00;0.62;;;;;14.50;2.10;;;;;;2256498;61;953;-83
2021/10/09 03:42:11;86198.00;0.29;149.74;0.00;0.00;0.62;;;;;14.30;1.00;;;;;;2246563;61;997;-83
2021/10/09 03:44:43;118091.00;0.39;204.79;0.00;0.00;0.62;;;;;14.00;1.00;;;;;;2255540;61;903;-83
2021/10/09 03:47:18;152710.00;0.51;264.48;0.00;0.00;0.62;;;;;14.10;1.00;;;;;;2256077;61;985;-83
2021/10/09 03:49:49;196677.00;0.66;340.20;0.00;0.00;0.62;;;;;14.30;1.00;;;;;;2256011;61;1397;-83
2021/10/09 03:52:36;133857.00;0.45;231.98;0.00;0.00;0.62;;;;;14.10;1.40;;;;;;2256220;61;1005;-83
2021/10/09 03:55:07;270631.00;0.90;467.43;0.00;0.00;0.62;;;;;14.10;1.00;;;;;;2256137;61;1999;-84
2021/10/09 03:57:34;158957.00;0.53;275.24;0.00;0.00;0.62;;;;;14.10;1.00;;;;;;2258016;61;1118;-84
2021/10/09 04:02:28;131121.00;0.44;227.26;0.00;0.00;0.62;;;;;14.60;1.80;;;;;;2486127;39;3661;31
2021/10/09 04:04:55;344794.00;1.15;594.91;0.00;0.00;0.62;;;;;14.30;1.00;;;;;;2270682;61;1356;-82
2021/10/09 04:07:22;352794.00;1.18;608.66;27518.00;0.09;48.29;;;;;13.50;1.00;;;;;;2262231;61;945;-83
2021/10/09 04:09:49;278316.00;0.93;480.64;0.00;0.00;0.62;;;;;13.40;1.00;;;;;;2265437;61;1458;-82
2021/10/09 04:12:17;201645.00;0.67;348.76;0.00;0.00;0.62;;;;;12.90;1.00;;;;;;2261873;61;945;-82
2021/10/09 04:14:45;290873.00;0.97;502.23;0.00;0.00;0.62;;;;;12.40;1.00;;;;;;2269258;61;1914;-81
2021/10/09 04:17:12;112157.00;0.37;194.55;0.00;0.00;0.62;;;;;12.60;4.40;;;;;;2269184;61;961;-83
2021/10/09 04:19:39;241655.00;0.81;417.60;0.00;0.00;0.62;;;;;13.10;3.40;;;;;;2268487;61;953;-84
2021/10/09 04:24:34;323416.00;1.08;558.17;0.00;0.00;0.62;;;;;13.90;3.50;;;;;;2274521;61;1414;-85
2021/10/09 04:27:01;139223.00;0.46;241.23;0.00;0.00;0.62;;;;;14.30;2.90;;;;;;2272643;61;970;-84
2021/10/09 04:29:30;253255.00;0.84;437.55;0.00;0.00;0.62;;;;;13.70;1.00;;;;;;2265582;61;952;-84
2021/10/09 04:31:58;215678.00;0.72;372.91;0.00;0.00;0.62;;;;;13.00;1.00;;;;;;2265453;61;1504;-86
2021/10/09 04:36:53;319944.00;1.07;552.20;0.00;0.00;0.62;;;;;12.40;1.00;;;;;;2274500;61;1394;-85
2021/10/09 04:39:20;141383.00;0.47;244.96;0.00;0.00;0.62;;;;;12.50;1.60;;;;;;2272761;61;993;-84
2021/10/09 04:44:15;277541.00;0.93;479.31;0.00;0.00;0.62;;;;;11.60;1.00;;;;;;2278669;61;1394;-85
2021/10/09 04:46:44;640884.00;2.14;1104.87;87259.00;0.29;151.57;;;;;11.50;1.00;;;;;;2267980;61;958;-83
2021/10/09 04:51:39;700917.00;2.34;1208.83;0.00;0.00;0.62;;;;;11.30;2.50;;;;;;2280110;61;1413;-85
2021/10/09 04:54:06;802698.00;2.68;1385.83;0.00;0.00;0.62;;;;;11.10;1.00;;;;;;2278191;61;1922;-85
2021/10/09 04:56:33;627697.00;2.09;1082.07;0.00;0.00;0.62;;;;;10.60;2.00;;;;;;2270885;61;1144;-85
2021/10/09 04:58:59;117760856.00;392.54;66150792.00;0.00;0.00;0.62;;;;;10.50;2.10;;;;;;2277524;61;1405;-85
2021/10/09 05:01:26;654777.00;2.18;1128.90;0.00;0.00;0.62;;;;;10.60;2.20;;;;;;2270573;61;1156;-85
2021/10/09 05:03:55;634868.00;2.12;1094.46;0.00;0.00;0.62;;;;;10.60;2.10;;;;;;2269191;61;1205;-84
2021/10/09 05:06:21;983124.00;3.28;1702.61;65300.00;0.22;113.64;;;;;10.70;1.40;;;;;;2266654;61;1028;-85
2021/10/09 05:08:48;769538.00;2.57;1328.05;0.00;0.00;0.62;;;;;10.90;3.30;;;;;;2264767;61;1310;-85
2021/10/09 05:11:18;736397.00;2.45;1270.41;0.00;0.00;0.62;;;;;11.00;1.00;;;;;;2261544;61;1097;-86
2021/10/09 05:13:45;801473.00;2.67;1383.69;14511.00;0.05;25.76;;;;;11.20;1.00;;;;;;2264411;61;1923;-85
2021/10/09 05:16:12;1078547.00;3.60;1872.10;8016.00;0.03;14.51;;;;;11.70;1.60;;;;;;2257962;61;1149;-85
2021/10/09 05:18:39;538349.00;1.79;927.88;0.00;0.00;0.62;;;;;11.50;1.00;;;;;;2258204;61;1391;-86
2021/10/09 05:21:07;805126.00;2.68;1390.06;0.00;0.00;0.62;;;;;11.20;1.00;;;;;;2261037;61;1045;-85
2021/10/09 05:23:35;681337.00;2.27;1174.89;43377.00;0.14;75.73;;;;;10.90;1.00;;;;;;2262770;61;1172;-86
2021/10/09 05:26:02;1028638.00;3.43;1783.26;117567.00;0.39;203.89;;;;;10.80;1.00;;;;;;2263542;61;1026;-85
2021/10/09 05:28:36;972614.00;3.24;1684.03;108353.00;0.36;187.99;;;;;10.60;1.20;;;;;;2253690;61;1481;-85
2021/10/09 05:31:03;825828.00;2.75;1426.21;98125.00;0.33;170.34;;;;;10.50;1.70;;;;;;2256997;61;1236;-85
2021/10/09 05:33:38;743791.00;2.48;1283.26;70910.00;0.24;123.33;;;;;10.50;2.00;;;;;;2263593;61;1196;-85
2021/10/09 05:36:07;753480.00;2.51;1300.11;97686.00;0.33;169.58;;;;;10.40;4.00;;;;;;2263622;61;1565;-85
2021/10/09 05:38:34;691522.00;2.31;1192.54;90497.00;0.30;157.17;;;;;10.70;3.40;;;;;;2263613;61;1315;-85
2021/10/09 05:41:01;117998448.00;393.33;66552344.00;80983.00;0.27;140.74;;;;;11.20;6.40;;;;;;2263264;61;1124;-85
2021/10/09 05:43:30;1154103.00;3.85;2007.45;167421.00;0.56;289.82;;;;;12.00;6.80;;;;;;2258919;61;1148;-85
2021/10/09 05:45:57;725752.00;2.42;1251.92;100391.00;0.33;174.25;;;;;12.70;6.30;;;;;;2269034;61;1189;-85
2021/10/09 05:48:24;905026.00;3.02;1564.95;119254.00;0.40;206.80;;;;;13.10;2.10;;;;;;2268740;61;1148;-85
2021/10/09 05:50:56;994372.00;3.31;1722.51;99246.00;0.33;172.27;;;;;13.50;1.00;;;;;;2276118;61;1253;-85
2021/10/09 05:53:45;624187.00;2.08;1076.00;100359.00;0.33;174.19;;;;;14.10;1.50;;;;;;2276153;61;1118;-86
2021/10/09 05:56:21;766297.00;2.55;1322.41;0.00;0.00;0.62;;;;;14.40;1.00;;;;;;2265556;61;1147;-86
2021/10/09 05:58:57;890617.00;2.97;1539.65;84323.00;0.28;146.50;;;;;14.20;1.00;;;;;;2276415;61;1484;-86
2021/10/09 06:01:40;835706.00;2.79;1443.47;83133.00;0.28;144.45;;;;;14.40;1.00;;;;;;2269933;61;1070;-89
2021/10/09 06:46:00;685210.00;2.28;1181.60;92099.00;0.31;159.93;;;;;15.10;1.00;;;;;;2289093;60;1233;-88
2021/10/09 06:48:52;709331.00;2.36;1223.42;82667.00;0.28;143.64;;;;;14.60;1.00;;;;;;2283253;60;1428;-87
2021/10/09 06:59:42;973158.00;3.24;1684.99;65468.00;0.22;113.93;;;;;16.40;1.00;;;;;;2278346;61;1339;-87
2021/10/09 07:02:11;508582.00;1.70;876.60;87072.00;0.29;151.25;;;;;17.10;1.00;;;;;;2278055;61;1599;-87
2021/10/09 07:04:38;896607.00;2.99;1550.16;241334.00;0.80;417.05;;;;;17.60;1.00;;;;;;2278726;61;1923;-88
2021/10/09 07:07:07;705651.00;2.35;1217.04;86429.00;0.29;150.14;;;;;17.50;1.00;;;;;;2278567;61;1124;-87
2021/10/09 07:09:34;574646.00;1.92;990.46;76278.00;0.25;132.61;;;;;16.90;1.00;;;;;;2278720;61;1725;-87
2021/10/09 07:12:01;734771.00;2.45;1267.59;89463.00;0.30;155.38;;;;;16.60;1.00;;;;;;2278512;61;1112;-86
2021/10/09 07:14:28;828880.00;2.76;1431.54;132780.00;0.44;230.12;;;;;16.70;1.00;;;;;;2278843;61;1096;-87
2021/10/09 07:16:55;518020.00;1.73;892.85;86812.00;0.29;150.80;;;;;16.70;1.00;;;;;;2278878;61;1043;-87
2021/10/09 07:19:23;782576.00;2.61;1350.75;119563.00;0.40;207.33;;;;;16.90;1.00;;;;;;2278705;61;1338;-87
2021/10/09 07:21:50;809922.00;2.70;1398.43;110175.00;0.37;191.13;;;;;16.80;1.00;;;;;;2276370;61;1163;-86
2021/10/09 07:24:17;877472.00;2.92;1516.59;149793.00;0.50;259.45;;;;;16.80;1.00;;;;;;2276465;61;1926;-87
2021/10/09 07:26:45;856504.00;2.86;1479.85;100049.00;0.33;173.66;;;;;16.00;1.00;;;;;;2276248;61;1123;-88
2021/10/09 07:29:12;679467.00;2.26;1171.65;86135.00;0.29;149.63;;;;;16.20;1.00;;;;;;2276004;61;1350;-87
2021/10/09 07:31:39;936403.00;3.12;1620.15;80921.00;0.27;140.63;;;;;15.90;1.00;;;;;;2276541;61;1163;-88
2021/10/09 07:34:06;549789.00;1.83;947.60;0.00;0.00;0.62;;;;;15.60;1.00;;;;;;2276512;61;1136;-87
2021/10/09 07:36:34;117474536.00;391.58;65669024.00;0.00;0.00;0.62;;;;;16.10;1.00;;;;;;2277502;61;1223;-87
2021/10/09 07:39:01;648166.00;2.16;1117.46;78846.00;0.26;137.04;;;;;16.00;1.00;;;;;;2277161;61;1285;-87
2021/10/09 07:41:28;893610.00;2.98;1544.90;99550.00;0.33;172.80;;;;;16.00;1.00;;;;;;2277352;61;1155;-87
2021/10/09 07:43:55;666933.00;2.22;1149.94;93812.00;0.31;162.89;;;;;16.10;1.00;;;;;;2278498;61;2000;-87
2021/10/09 07:46:23;707878.00;2.36;1220.90;88585.00;0.30;153.86;;;;;16.70;1.00;;;;;;2281292;61;1099;-88
2021/10/09 07:48:49;557756.00;1.86;961.33;0.00;0.00;0.62;;;;;17.10;1.00;;;;;;2281300;61;1270;-87
2021/10/09 07:51:17;507210.00;1.69;874.24;3016.00;0.01;5.85;;;;;17.60;1.00;;;;;;2281117;61;1068;-88
2021/10/09 07:53:45;588460.00;1.96;1014.30;0.00;0.00;0.62;;;;;18.10;1.00;;;;;;2281172;61;1149;-88
2021/10/09 07:56:12;771412.00;2.57;1331.31;92855.00;0.31;161.24;;;;;17.90;1.00;;;;;;2279900;61;1148;-88
2021/10/09 07:58:39;582346.00;1.94;1003.75;14694.00;0.05;26.08;;;;;17.20;1.00;;;;;;2280309;61;1403;-87
2021/10/09 08:01:06;949046.00;3.16;1642.43;73525.00;0.25;127.85;;;;;16.60;1.00;;;;;;2278641;61;1144;-88
2021/10/09 08:03:33;670936.00;2.24;1156.87;0.00;0.00;0.62;;;;;16.20;1.00;;;;;;2277848;61;1128;-86
2021/10/09 08:06:00;580731.00;1.94;1000.96;0.00;0.00;0.62;;;;;15.80;1.00;;;;;;2278137;61;1959;-87
2021/10/09 08:08:27;842177.00;2.81;1454.78;35404.00;0.12;61.94;;;;;15.90;1.00;;;;;;2278326;61;1114;-87
2021/10/09 08:10:55;646883.00;2.16;1115.24;0.00;0.00;0.62;;;;;15.80;1.00;;;;;;2278065;61;1570;-87
2021/10/09 08:13:22;633130.00;2.11;1091.46;24789.00;0.08;43.56;;;;;16.00;1.00;;;;;;2278463;61;1104;-86
2021/10/09 08:15:50;547558.00;1.83;943.75;0.00;0.00;0.62;;;;;16.40;1.00;;;;;;2278594;61;1102;-87
2021/10/09 08:18:16;700633.00;2.34;1208.34;0.00;0.00;0.62;;;;;16.00;1.00;;;;;;2278879;61;1168;-87
2021/10/09 08:20:46;770132.00;2.57;1329.08;14588.00;0.05;25.90;;;;;15.60;1.00;;;;;;2278672;61;1322;-87
2021/10/09 08:23:16;619742.00;2.07;1068.32;0.00;0.00;0.62;;;;;15.70;1.00;;;;;;2279059;61;1058;-87
2021/10/09 08:36:53;757685.00;2.53;1307.42;0.00;0.00;0.62;;;;;15.50;1.00;;;;;;2280502;61;748;-87
2021/10/09 08:39:19;668246.00;2.23;1152.22;14436.00;0.05;25.63;;;;;15.50;1.00;;;;;;2278606;61;1371;-88
2021/10/09 08:41:47;117077584.00;390.26;65004980.00;29691.00;0.10;52.05;;;;;15.40;1.00;;;;;;2278514;61;1147;-88
2021/10/09 08:44:15;448071.00;1.49;772.46;21596.00;0.07;38.03;;;;;15.60;1.00;;;;;;2278355;61;1919;-88
2021/10/09 08:46:42;679566.00;2.27;1171.82;0.00;0.00;0.62;;;;;15.70;1.00;;;;;;2278264;61;1170;-88
2021/10/09 08:49:09;404873.00;1.35;698.18;0.00;0.00;0.62;;;;;15.60;1.00;;;;;;2277837;61;1337;-88
2021/10/09 08:51:37;1024017.00;3.41;1775.06;82509.00;0.28;143.37;;;;;15.90;1.00;;;;;;2278793;61;1112;-88
2021/10/09 08:54:09;713057.00;2.38;1229.89;72631.00;0.24;126.31;;;;;15.90;1.00;;;;;;2279189;61;1139;-88
2021/10/09 08:56:38;516827.00;1.72;890.80;0.00;0.00;0.62;;;;;15.70;1.00;;;;;;2278677;61;1140;-88
2021/10/09 08:59:12;734917.00;2.45;1267.84;57887.00;0.19;100.82;;;;;15.70;1.00;;;;;;2278433;61;1416;-88
2021/10/09 09:01:52;781982.00;2.61;1349.72;65927.00;0.22;114.72;;;;;15.90;1.00;;;;;;2279044;61;1211;-89
2021/10/09 09:35:46;788331.00;2.63;1360.78;0.00;0.00;0.62;;;;;16.20;1.00;;;;;;2280366;61;999;-88
2021/10/09 09:41:00;137529360.00;458.43;105417664.00;369.00;0.00;1.26;;;;;16.90;1.00;;;;;;2280374;61;963;-88
2021/10/09 09:43:40;575355.00;1.92;991.68;0.00;0.00;0.62;;;;;16.90;1.00;;;;;;2279410;61;1192;-88
2021/10/09 09:46:11;1006541.00;3.36;1744.06;37735.00;0.13;65.97;;;;;16.40;1.00;;;;;;2279105;61;2030;-88
2021/10/09 09:48:38;122697392.00;408.99;74831952.00;198922.00;0.66;344.07;;;;;16.40;1.00;;;;;;2277508;61;1274;-88
2021/10/09 09:51:10;1494345.00;4.98;2632.48;129364.00;0.43;224.23;;;;;16.60;1.00;;;;;;2278632;61;1280;-88
2021/10/09 09:53:39;1211514.00;4.04;2111.05;148592.00;0.50;257.38;;;;;16.70;1.00;;;;;;2278530;61;1117;-88
2021/10/09 09:56:08;1055366.00;3.52;1830.78;81457.00;0.27;141.55;;;;;16.40;1.00;;;;;;2278719;61;1253;-88
2021/10/09 09:58:38;1851638.00;6.17;3324.01;197941.00;0.66;342.38;;;;;16.00;1.00;;;;;;2279415;61;1383;-87
2021/10/09 10:01:08;1292970.00;4.31;2259.25;83295.00;0.28;144.73;;;;;16.10;1.00;;;;;;2278325;61;1159;-89
2021/10/09 10:03:36;1100698.00;3.67;1911.67;125389.00;0.42;217.38;;;;;16.50;1.00;;;;;;2279395;61;1323;-89
2021/10/09 10:06:04;1913790.00;6.38;3448.78;224902.00;0.75;388.78;;;;;16.20;1.00;;;;;;2278988;61;1951;-89
2021/10/09 10:08:33;1063271.00;3.54;1844.86;15456.00;0.05;27.40;;;;;16.20;1.00;;;;;;2279337;61;1359;-88
2021/10/09 10:11:03;1357996.00;4.53;2378.64;158153.00;0.53;273.86;;;;;16.30;1.00;;;;;;2279602;61;1109;-88
2021/10/09 10:13:33;1872567.00;6.24;3365.86;113332.00;0.38;196.58;;;;;16.10;1.00;;;;;;2279605;61;1751;-88
2021/10/09 10:16:06;1468264.00;4.89;2583.54;196460.00;0.65;339.83;;;;;16.20;1.00;;;;;;2279535;61;996;-88
2021/10/09 10:18:49;1327767.00;4.43;2323.01;115918.00;0.39;201.04;;;;;16.00;1.00;;;;;;2279588;61;1482;-88
2021/10/09 10:21:18;1131320.00;3.77;1966.53;243071.00;0.81;420.03;;;;;16.00;1.00;;;;;;2280218;61;1068;-89
2021/10/09 10:23:47;1002063.00;3.34;1736.13;50359.00;0.17;87.81;;;;;16.00;1.00;;;;;;2279874;61;993;-89
2021/10/09 10:26:28;386565.00;1.29;666.71;69645.00;0.23;121.15;;;;;16.00;1.00;;;;;;2280030;61;2000;-88
2021/10/09 10:29:23;411617.00;1.37;709.78;85774.00;0.29;149.01;;;;;15.90;1.00;;;;;;2280168;61;1356;-88
2021/10/09 10:32:13;145416320.00;484.72;124635376.00;129801.00;0.43;224.99;;;;;15.90;1.00;;;;;;2279754;61;1235;-89
2021/10/09 10:34:42;261229.00;0.87;451.26;84379.00;0.28;146.60;;;;;16.10;1.00;;;;;;2280257;61;1209;-89
2021/10/09 10:37:31;198019.00;0.66;342.51;0.00;0.00;0.62;;;;;16.20;1.00;;;;;;2280073;61;1143;-88
2021/10/09 10:39:59;209339.00;0.70;362.00;0.00;0.00;0.62;;;;;16.20;1.00;;;;;;2280130;61;1399;-87
2021/10/09 10:42:30;201563.00;0.67;348.61;16729.00;0.06;29.61;;;;;16.30;1.00;;;;;;2280298;61;1141;-88
2021/10/09 10:54:32;357528.00;1.19;616.80;0.00;0.00;0.62;;;;;16.20;1.00;;;;;;2271872;61;1020;-87
2021/10/09 10:57:21;922029.00;3.07;1594.84;71608.00;0.24;124.54;;;;;16.30;1.00;;;;;;2271967;61;1150;-88
2021/10/09 11:00:13;543943.00;1.81;937.52;14769.00;0.05;26.21;;;;;16.80;1.00;;;;;;2271762;61;1420;-86
2021/10/09 11:02:49;1063226.00;3.54;1844.78;53562.00;0.18;93.35;;;;;16.60;1.00;;;;;;2271537;61;1096;-87
2021/10/09 11:05:18;428903.00;1.43;739.50;0.00;0.00;0.62;;;;;16.60;1.00;;;;;;2271694;61;1997;-87
2021/10/09 11:07:46;1721490.00;5.74;3067.26;181374.00;0.60;313.86;;;;;16.40;1.00;;;;;;2271676;61;1113;-87
2021/10/09 11:10:16;1622477.00;5.41;2875.77;144924.00;0.48;251.06;;;;;16.50;1.00;;;;;;2271319;61;1581;-87
2021/10/09 11:12:45;1715977.00;5.72;3056.51;74659.00;0.25;129.81;;;;;16.70;1.00;;;;;;2271158;61;1061;-87
2021/10/09 11:15:19;1458890.00;4.86;2566.00;144747.00;0.48;250.75;;;;;16.50;1.00;;;;;;2271127;61;1116;-87
2021/10/09 11:17:48;1416339.00;4.72;2486.66;111940.00;0.37;194.18;;;;;16.20;1.00;;;;;;2270999;61;1102;-85
2021/10/09 11:20:21;1803652.00;6.01;3228.64;114034.00;0.38;197.79;;;;;16.10;1.00;;;;;;2271054;61;1404;-84
2021/10/09 11:22:50;1760454.00;5.87;3143.50;158390.00;0.53;274.27;;;;;16.30;1.00;;;;;;2271039;61;1049;-85
2021/10/09 11:25:29;119961408.00;399.87;69932432.00;64217.00;0.21;111.77;;;;;16.40;1.00;;;;;;2270856;61;2009;-87
2021/10/09 11:28:00;2155543.00;7.19;3948.75;244507.00;0.82;422.50;;;;;16.80;1.00;;;;;;2276219;61;1113;-89
2021/10/09 11:30:27;1156337.00;3.85;2011.47;73854.00;0.25;128.42;;;;;16.90;1.00;;;;;;2279243;61;1358;-89
2021/10/09 11:32:57;1817687.00;6.06;3256.45;132334.00;0.44;229.35;;;;;17.10;1.00;;;;;;2280008;61;879;-89
2021/10/09 11:35:35;2087397.00;6.96;3805.35;347313.00;1.16;599.24;;;;;16.90;1.00;;;;;;2280006;61;1059;-88
2021/10/09 11:38:05;2047488.00;6.82;3722.29;175010.00;0.58;302.90;;;;;16.90;1.00;;;;;;2279819;61;1172;-89
2021/10/09 11:40:38;1531019.00;5.10;2701.62;216619.00;0.72;374.53;;;;;17.10;1.00;;;;;;2279507;61;1344;-89
2021/10/09 11:43:18;1393169.00;4.64;2443.66;127553.00;0.43;221.11;;;;;17.10;1.00;;;;;;2279539;61;1269;-88
2021/10/09 11:45:52;2133749.00;7.11;3902.67;331674.00;1.11;572.36;;;;;16.80;1.00;;;;;;2279765;61;1990;-88
2021/10/09 11:53:59;1602552.00;5.34;2837.62;216387.00;0.72;374.13;;;;;16.80;1.00;;;;;;2279790;61;761;-89
2021/10/09 11:56:26;661146.00;2.20;1139.92;5892.00;0.02;10.83;;;;;16.80;1.00;;;;;;2279622;61;1163;-88
2021/10/09 11:58:57;814753.00;2.72;1406.87;0.00;0.00;0.62;;;;;16.70;1.00;;;;;;2279534;61;1297;-88
2021/10/09 12:01:26;1010425.00;3.37;1750.94;77834.00;0.26;135.30;;;;;16.90;1.00;;;;;;2279316;61;1165;-89
2021/10/09 12:03:53;601481.00;2.00;1036.78;0.00;0.00;0.62;;;;;16.70;1.00;;;;;;2278952;61;977;-88
2021/10/09 12:06:19;531961.00;1.77;916.87;0.00;0.00;0.62;;;;;17.00;1.00;;;;;;2278970;61;1994;-89
2021/10/09 12:08:51;747314.00;2.49;1289.39;0.00;0.00;0.62;;;;;17.00;1.00;;;;;;2278551;61;1273;-89
2021/10/09 12:11:27;674753.00;2.25;1163.48;0.00;0.00;0.62;;;;;16.90;1.00;;;;;;2279745;61;1135;-87
2021/10/09 12:13:58;665773.00;2.22;1147.93;0.00;0.00;0.62;;;;;16.90;1.00;;;;;;2280164;61;1092;-89
2021/10/09 12:16:33;671811.00;2.24;1158.39;0.00;0.00;0.62;;;;;17.20;1.00;;;;;;2279433;61;1152;-89
2021/10/09 12:19:03;615598.00;2.05;1061.16;0.00;0.00;0.62;;;;;17.20;1.00;;;;;;2279435;61;1276;-88
2021/10/09 12:21:32;616133.00;2.05;1062.08;0.00;0.00;0.62;;;;;17.30;1.00;;;;;;2278996;61;1164;-89
2021/10/09 12:24:11;654974.00;2.18;1129.24;0.00;0.00;0.62;;;;;17.20;1.00;;;;;;2276896;61;1599;-88
2021/10/09 12:26:38;597990.00;1.99;1030.75;4714.00;0.02;8.79;;;;;17.70;1.00;;;;;;2275514;61;1923;-86
2021/10/09 12:29:12;546328.00;1.82;941.63;32062.00;0.11;56.15;;;;;18.40;1.00;;;;;;2275851;61;1780;-86